Detall de PIREP

Printer-friendly versionPDF version

[2010/07/08 21:23:00]
Flight IATA:CT2208
Pilot Number:026
Company ICAO:CAT
Aircraft Type:DC85/A
PAX:136
Departing Airport: LFMP
Destination Airport: LFQQ
Alternate Airport:LFPG
Online: VATSIM
Route:ORBIL/N0280F180 G36 GAI/N0300F300 UT186 PERIG UY156 ADABI UN858 VADOM/N0310F320 UN874 CMB
Flight Level:FL320
No Slew and time accel
No pause
Crash detect
Detect pilot in Cockpit between each 30 and 45 minutes
21:23 Zero fuel Weight: 178526 Lbs, Fuel Weight: 28002 Lbs
21:24 VATSIM:LFMP 082100Z AUTO 02004KT 330V070 9999NDV NSC 24/21 Q1020
21:24 VATSIM:LFQQ 082100Z 05006KT CAVOK 24/17 Q1017 NOSIG
21:24 VOICE CATALONIAN / IATA CT2208
21:31 Parking Brakes off
21:36 Take-off
21:36 Take off Weight: 205703 Lbs
21:36 Wind: 023º @ 005 Knots Heading: 329º
21:36 POS N42º 44´ 58´´ E002º 51´ 56´´
21:36 Flaps:2 at 178 Knots
21:36 Gear Up: 179 Knots
21:37 Flaps:1 at 179 Knots
21:38 F
laps:0 at 203 Knots
21:51 Wind:111º@037 Knots Heading: 326º Ground Speed: 524 Knots Altitude 29114 ft
22:06 Wind:070º@017 Knots Heading: 359º Ground Speed: 491 Knots Altitude 30052 ft
22:21 Wind:104º@024 Knots Heading: 023º Ground Speed: 478 Knots Altitude 30088 ft
22:36 Wind:088º@002 Knots Heading: 049º Ground Speed: 400 Knots Altitude 19494 ft
22:51 Wind:056º@006 Knots Heading: 352º Ground Speed: 194 Knots Altitude 1994 ft
22:52 Flaps:1 at 193 Knots
22:53 Flaps:2 at 178 Knots
22:54 Gear Down: 172 Knots
22:54 Flaps:3 at 150 Knots
22:55 Flaps:4 at 150 Knots
22:56 Flaps:5 at 151 Knots
22:56 TouchDown:Rate -133 ft/min Speed: 137 Knots
22:57 VATSIM:LFQQ 082200Z 07005KT CAVOK 23/17 Q1017 NOSIG
22:57 Land
22:57 Wind:072º@005 Knots
22:57 Heading: 077º
22:57 Flight Duration: 01:21
22:57 Landing Weight: 187737 Lbs
22:57 POS N50º 33´ 56´´ E003º 06´ 12´´
23:00 Park
ing brakes on
23:00 Block to Block Duration: 01:29
23:00 Final Fuel: 8906 Lbls
23:00 Spent Fuel: 19096 Lbls
23:00 Flight Length: 543 NM
23:00 TOD Land Length: 543 NM

Exportar CSV

Powered by Drupal - Modified by Danger4k